sensor_id;sensor_type;location;lat;lon;timestamp;temperature;humidity
70074;DHT22;57445;51.058;3.698;2022-09-09T00:01:28;18.30;92.10
70074;DHT22;57445;51.058;3.698;2022-09-09T00:04:13;18.10;92.40
70074;DHT22;57445;51.058;3.698;2022-09-09T00:06:55;18.30;92.00
70074;DHT22;57445;51.058;3.698;2022-09-09T00:09:33;18.40;91.80
70074;DHT22;57445;51.058;3.698;2022-09-09T00:12:10;18.40;91.80
70074;DHT22;57445;51.058;3.698;2022-09-09T00:14:49;18.40;91.80
70074;DHT22;57445;51.058;3.698;2022-09-09T00:17:33;18.30;92.30
70074;DHT22;57445;51.058;3.698;2022-09-09T00:20:10;18.20;92.40
70074;DHT22;57445;51.058;3.698;2022-09-09T00:22:42;18.10;92.20
70074;DHT22;57445;51.058;3.698;2022-09-09T00:25:19;17.90;92.00
70074;DHT22;57445;51.058;3.698;2022-09-09T00:27:50;18.10;92.20
70074;DHT22;57445;51.058;3.698;2022-09-09T00:30:20;18.20;91.90
70074;DHT22;57445;51.058;3.698;2022-09-09T00:32:49;18.10;92.00
70074;DHT22;57445;51.058;3.698;2022-09-09T00:35:22;18.10;92.10
70074;DHT22;57445;51.058;3.698;2022-09-09T00:37:58;18.20;91.90
70074;DHT22;57445;51.058;3.698;2022-09-09T00:40:35;18.10;92.10
70074;DHT22;57445;51.058;3.698;2022-09-09T00:43:30;18.10;92.10
70074;DHT22;57445;51.058;3.698;2022-09-09T00:46:25;18.00;92.30
70074;DHT22;57445;51.058;3.698;2022-09-09T00:49:05;18.10;92.30
70074;DHT22;57445;51.058;3.698;2022-09-09T00:51:46;18.00;92.10
70074;DHT22;57445;51.058;3.698;2022-09-09T00:54:39;17.90;92.40
70074;DHT22;57445;51.058;3.698;2022-09-09T00:57:23;17.90;92.30
70074;DHT22;57445;51.058;3.698;2022-09-09T01:00:14;17.80;92.50
70074;DHT22;57445;51.058;3.698;2022-09-09T01:02:44;17.90;92.50
70074;DHT22;57445;51.058;3.698;2022-09-09T01:05:20;17.90;92.50
70074;DHT22;57445;51.058;3.698;2022-09-09T01:07:50;17.80;92.70
70074;DHT22;57445;51.058;3.698;2022-09-09T01:10:27;17.80;92.70
70074;DHT22;57445;51.058;3.698;2022-09-09T01:13:01;17.70;93.00
70074;DHT22;57445;51.058;3.698;2022-09-09T01:15:37;17.80;92.70
70074;DHT22;57445;51.058;3.698;2022-09-09T01:18:07;17.70;92.70
70074;DHT22;57445;51.058;3.698;2022-09-09T01:20:47;17.60;93.00
70074;DHT22;57445;51.058;3.698;2022-09-09T01:23:35;17.50;93.10
70074;DHT22;57445;51.058;3.698;2022-09-09T01:26:26;17.70;92.80
70074;DHT22;57445;51.058;3.698;2022-09-09T01:28:55;17.70;92.80
70074;DHT22;57445;51.058;3.698;2022-09-09T01:31:27;17.60;93.00
70074;DHT22;57445;51.058;3.698;2022-09-09T01:34:00;17.50;93.30
70074;DHT22;57445;51.058;3.698;2022-09-09T01:36:37;17.60;93.20
70074;DHT22;57445;51.058;3.698;2022-09-09T01:39:05;17.60;92.90
70074;DHT22;57445;51.058;3.698;2022-09-09T01:41:39;17.60;92.80
70074;DHT22;57445;51.058;3.698;2022-09-09T01:44:07;17.60;92.80
70074;DHT22;57445;51.058;3.698;2022-09-09T01:49:05;17.50;92.90
70074;DHT22;57445;51.058;3.698;2022-09-09T01:51:39;17.30;93.50
70074;DHT22;57445;51.058;3.698;2022-09-09T01:54:12;17.10;93.70
70074;DHT22;57445;51.058;3.698;2022-09-09T01:56:47;17.10;93.90
70074;DHT22;57445;51.058;3.698;2022-09-09T01:59:41;17.20;93.50
70074;DHT22;57445;51.058;3.698;2022-09-09T02:02:17;17.30;93.60
70074;DHT22;57445;51.058;3.698;2022-09-09T02:04:48;17.20;93.90
70074;DHT22;57445;51.058;3.698;2022-09-09T02:07:28;17.20;93.70
70074;DHT22;57445;51.058;3.698;2022-09-09T02:10:08;17.40;93.50
70074;DHT22;57445;51.058;3.698;2022-09-09T02:12:39;17.30;93.50
70074;DHT22;57445;51.058;3.698;2022-09-09T02:15:15;17.30;93.50
70074;DHT22;57445;51.058;3.698;2022-09-09T02:17:50;17.30;93.50
70074;DHT22;57445;51.058;3.698;2022-09-09T02:20:24;17.50;93.30
70074;DHT22;57445;51.058;3.698;2022-09-09T02:22:53;17.40;93.30
70074;DHT22;57445;51.058;3.698;2022-09-09T02:25:29;17.30;93.70
70074;DHT22;57445;51.058;3.698;2022-09-09T02:27:58;17.40;93.60
70074;DHT22;57445;51.058;3.698;2022-09-09T02:30:31;17.40;93.60
70074;DHT22;57445;51.058;3.698;2022-09-09T02:33:06;17.60;93.40
70074;DHT22;57445;51.058;3.698;2022-09-09T02:35:42;17.60;93.30
70074;DHT22;57445;51.058;3.698;2022-09-09T02:38:16;17.80;93.00
70074;DHT22;57445;51.058;3.698;2022-09-09T02:40:49;17.80;92.90
70074;DHT22;57445;51.058;3.698;2022-09-09T02:43:22;17.80;93.10
70074;DHT22;57445;51.058;3.698;2022-09-09T02:45:56;17.40;93.70
70074;DHT22;57445;51.058;3.698;2022-09-09T02:48:31;17.30;94.30
70074;DHT22;57445;51.058;3.698;2022-09-09T02:51:09;17.20;94.20
70074;DHT22;57445;51.058;3.698;2022-09-09T02:53:43;17.50;94.00
70074;DHT22;57445;51.058;3.698;2022-09-09T02:56:15;17.70;93.20
70074;DHT22;57445;51.058;3.698;2022-09-09T02:58:45;17.50;93.50
70074;DHT22;57445;51.058;3.698;2022-09-09T03:01:13;17.70;93.50
70074;DHT22;57445;51.058;3.698;2022-09-09T03:03:47;17.90;92.90
70074;DHT22;57445;51.058;3.698;2022-09-09T03:06:15;17.80;92.90
70074;DHT22;57445;51.058;3.698;2022-09-09T03:08:47;17.60;93.20
70074;DHT22;57445;51.058;3.698;2022-09-09T03:11:15;17.70;93.30
70074;DHT22;57445;51.058;3.698;2022-09-09T03:13:43;17.60;93.30
70074;DHT22;57445;51.058;3.698;2022-09-09T03:16:11;17.60;93.30
70074;DHT22;57445;51.058;3.698;2022-09-09T03:18:40;17.50;93.50
70074;DHT22;57445;51.058;3.698;2022-09-09T03:21:08;17.50;93.60
70074;DHT22;57445;51.058;3.698;2022-09-09T03:23:41;17.50;93.60
70074;DHT22;57445;51.058;3.698;2022-09-09T03:26:09;17.60;93.50
70074;DHT22;57445;51.058;3.698;2022-09-09T03:28:36;17.50;93.50
70074;DHT22;57445;51.058;3.698;2022-09-09T03:31:05;17.80;93.20
70074;DHT22;57445;51.058;3.698;2022-09-09T03:33:42;17.60;93.70
70074;DHT22;57445;51.058;3.698;2022-09-09T03:36:14;17.70;93.10
70074;DHT22;57445;51.058;3.698;2022-09-09T03:38:42;17.90;92.70
70074;DHT22;57445;51.058;3.698;2022-09-09T03:41:14;17.80;93.00
70074;DHT22;57445;51.058;3.698;2022-09-09T03:43:42;17.60;93.40
70074;DHT22;57445;51.058;3.698;2022-09-09T03:46:14;17.70;93.30
70074;DHT22;57445;51.058;3.698;2022-09-09T03:48:43;17.80;93.20
70074;DHT22;57445;51.058;3.698;2022-09-09T03:51:15;17.90;92.70
70074;DHT22;57445;51.058;3.698;2022-09-09T03:53:44;18.00;92.60
70074;DHT22;57445;51.058;3.698;2022-09-09T03:56:11;17.90;92.90
70074;DHT22;57445;51.058;3.698;2022-09-09T03:58:39;18.00;92.60
70074;DHT22;57445;51.058;3.698;2022-09-09T04:01:12;18.00;92.40
70074;DHT22;57445;51.058;3.698;2022-09-09T04:03:40;18.00;92.60
70074;DHT22;57445;51.058;3.698;2022-09-09T04:06:11;17.80;92.70
70074;DHT22;57445;51.058;3.698;2022-09-09T04:08:44;17.90;92.50
70074;DHT22;57445;51.058;3.698;2022-09-09T04:11:11;17.90;92.70
70074;DHT22;57445;51.058;3.698;2022-09-09T04:13:44;17.90;92.50
70074;DHT22;57445;51.058;3.698;2022-09-09T04:16:12;17.50;93.30
70074;DHT22;57445;51.058;3.698;2022-09-09T04:18:44;17.70;92.80
70074;DHT22;57445;51.058;3.698;2022-09-09T04:21:13;18.10;92.30
70074;DHT22;57445;51.058;3.698;2022-09-09T04:23:42;17.80;92.90
70074;DHT22;57445;51.058;3.698;2022-09-09T04:26:14;18.00;92.60
70074;DHT22;57445;51.058;3.698;2022-09-09T04:28:46;17.90;92.40
70074;DHT22;57445;51.058;3.698;2022-09-09T04:31:18;18.00;92.40
70074;DHT22;57445;51.058;3.698;2022-09-09T04:33:46;18.10;92.30
70074;DHT22;57445;51.058;3.698;2022-09-09T04:36:20;18.10;92.30
70074;DHT22;57445;51.058;3.698;2022-09-09T04:38:52;17.90;92.60
70074;DHT22;57445;51.058;3.698;2022-09-09T04:41:19;18.00;92.50
70074;DHT22;57445;51.058;3.698;2022-09-09T04:43:52;18.10;92.20
70074;DHT22;57445;51.058;3.698;2022-09-09T04:46:20;17.90;92.50
70074;DHT22;57445;51.058;3.698;2022-09-09T04:48:49;17.90;92.50
70074;DHT22;57445;51.058;3.698;2022-09-09T04:51:23;17.70;93.00
70074;DHT22;57445;51.058;3.698;2022-09-09T04:53:51;17.80;92.90
70074;DHT22;57445;51.058;3.698;2022-09-09T04:56:20;17.80;92.80
70074;DHT22;57445;51.058;3.698;2022-09-09T04:58:48;18.00;92.40
70074;DHT22;57445;51.058;3.698;2022-09-09T05:01:21;18.00;92.40
70074;DHT22;57445;51.058;3.698;2022-09-09T05:03:54;18.00;92.30
70074;DHT22;57445;51.058;3.698;2022-09-09T05:06:23;18.00;92.40
70074;DHT22;57445;51.058;3.698;2022-09-09T05:08:56;18.00;92.30
70074;DHT22;57445;51.058;3.698;2022-09-09T05:11:25;17.80;92.90
70074;DHT22;57445;51.058;3.698;2022-09-09T05:13:53;17.80;92.70
70074;DHT22;57445;51.058;3.698;2022-09-09T05:16:26;17.60;93.20
70074;DHT22;57445;51.058;3.698;2022-09-09T05:18:53;17.90;92.90
70074;DHT22;57445;51.058;3.698;2022-09-09T05:21:24;18.10;92.40
70074;DHT22;57445;51.058;3.698;2022-09-09T05:23:54;17.90;93.10
70074;DHT22;57445;51.058;3.698;2022-09-09T05:26:22;17.90;93.40
70074;DHT22;57445;51.058;3.698;2022-09-09T05:28:55;18.00;93.40
70074;DHT22;57445;51.058;3.698;2022-09-09T05:31:23;18.00;93.20
70074;DHT22;57445;51.058;3.698;2022-09-09T05:33:59;17.90;93.90
70074;DHT22;57445;51.058;3.698;2022-09-09T05:36:32;18.00;93.40
70074;DHT22;57445;51.058;3.698;2022-09-09T05:39:04;18.20;93.00
70074;DHT22;57445;51.058;3.698;2022-09-09T05:41:32;18.20;93.20
70074;DHT22;57445;51.058;3.698;2022-09-09T05:43:59;18.10;92.80
70074;DHT22;57445;51.058;3.698;2022-09-09T05:46:27;18.30;92.50
70074;DHT22;57445;51.058;3.698;2022-09-09T05:48:55;18.30;92.50
70074;DHT22;57445;51.058;3.698;2022-09-09T05:51:26;18.20;92.70
70074;DHT22;57445;51.058;3.698;2022-09-09T05:54:02;18.00;92.90
70074;DHT22;57445;51.058;3.698;2022-09-09T05:56:34;18.40;92.20
70074;DHT22;57445;51.058;3.698;2022-09-09T05:59:02;18.40;92.10
70074;DHT22;57445;51.058;3.698;2022-09-09T06:01:32;18.60;92.00
70074;DHT22;57445;51.058;3.698;2022-09-09T06:04:00;18.10;93.10
70074;DHT22;57445;51.058;3.698;2022-09-09T06:06:31;18.00;93.50
70074;DHT22;57445;51.058;3.698;2022-09-09T06:09:09;18.20;93.80
70074;DHT22;57445;51.058;3.698;2022-09-09T06:11:38;18.10;93.40
70074;DHT22;57445;51.058;3.698;2022-09-09T06:14:11;18.10;93.70
70074;DHT22;57445;51.058;3.698;2022-09-09T06:16:38;18.30;93.60
70074;DHT22;57445;51.058;3.698;2022-09-09T06:19:10;18.40;93.70
70074;DHT22;57445;51.058;3.698;2022-09-09T06:21:43;18.30;93.30
70074;DHT22;57445;51.058;3.698;2022-09-09T06:24:12;18.50;92.70
70074;DHT22;57445;51.058;3.698;2022-09-09T06:26:43;18.40;92.90
70074;DHT22;57445;51.058;3.698;2022-09-09T06:29:16;18.30;93.30
70074;DHT22;57445;51.058;3.698;2022-09-09T06:31:48;18.30;93.60
70074;DHT22;57445;51.058;3.698;2022-09-09T06:34:15;18.10;93.60
70074;DHT22;57445;51.058;3.698;2022-09-09T06:36:47;18.20;93.50
70074;DHT22;57445;51.058;3.698;2022-09-09T06:39:16;18.50;93.00
70074;DHT22;57445;51.058;3.698;2022-09-09T06:41:44;18.70;92.50
70074;DHT22;57445;51.058;3.698;2022-09-09T06:44:13;18.80;92.30
70074;DHT22;57445;51.058;3.698;2022-09-09T06:46:46;18.80;92.50
70074;DHT22;57445;51.058;3.698;2022-09-09T06:49:14;18.70;92.50
70074;DHT22;57445;51.058;3.698;2022-09-09T06:51:42;18.80;92.60
70074;DHT22;57445;51.058;3.698;2022-09-09T06:54:10;18.90;92.50
70074;DHT22;57445;51.058;3.698;2022-09-09T06:56:45;19.00;92.10
70074;DHT22;57445;51.058;3.698;2022-09-09T06:59:12;19.30;91.40
70074;DHT22;57445;51.058;3.698;2022-09-09T07:01:41;19.60;90.70
70074;DHT22;57445;51.058;3.698;2022-09-09T07:04:10;19.30;91.50
70074;DHT22;57445;51.058;3.698;2022-09-09T07:06:41;19.10;91.80
70074;DHT22;57445;51.058;3.698;2022-09-09T07:09:15;19.30;91.50
70074;DHT22;57445;51.058;3.698;2022-09-09T07:11:46;19.40;91.30
70074;DHT22;57445;51.058;3.698;2022-09-09T07:14:14;19.60;91.20
70074;DHT22;57445;51.058;3.698;2022-09-09T07:16:43;19.90;90.30
70074;DHT22;57445;51.058;3.698;2022-09-09T07:19:17;20.10;90.20
70074;DHT22;57445;51.058;3.698;2022-09-09T07:21:45;20.10;89.50
70074;DHT22;57445;51.058;3.698;2022-09-09T07:24:17;20.10;90.20
70074;DHT22;57445;51.058;3.698;2022-09-09T07:26:46;19.80;90.50
70074;DHT22;57445;51.058;3.698;2022-09-09T07:29:18;20.00;90.30
70074;DHT22;57445;51.058;3.698;2022-09-09T07:31:51;20.30;89.70
70074;DHT22;57445;51.058;3.698;2022-09-09T07:34:23;20.50;89.30
70074;DHT22;57445;51.058;3.698;2022-09-09T07:36:55;20.70;88.40
70074;DHT22;57445;51.058;3.698;2022-09-09T07:39:28;20.90;87.30
70074;DHT22;57445;51.058;3.698;2022-09-09T07:41:57;21.10;86.80
70074;DHT22;57445;51.058;3.698;2022-09-09T07:44:25;21.10;86.20
70074;DHT22;57445;51.058;3.698;2022-09-09T07:46:54;21.10;87.00
70074;DHT22;57445;51.058;3.698;2022-09-09T07:49:26;21.10;86.70
70074;DHT22;57445;51.058;3.698;2022-09-09T07:51:53;21.10;86.20
70074;DHT22;57445;51.058;3.698;2022-09-09T07:54:26;20.70;87.30
70074;DHT22;57445;51.058;3.698;2022-09-09T07:56:53;20.70;87.00
70074;DHT22;57445;51.058;3.698;2022-09-09T07:59:27;20.50;88.00
70074;DHT22;57445;51.058;3.698;2022-09-09T08:01:56;20.50;88.50
70074;DHT22;57445;51.058;3.698;2022-09-09T08:04:29;20.20;89.80
70074;DHT22;57445;51.058;3.698;2022-09-09T08:07:02;20.40;89.40
70074;DHT22;57445;51.058;3.698;2022-09-09T08:09:35;20.10;90.00
70074;DHT22;57445;51.058;3.698;2022-09-09T08:12:07;19.90;90.50
70074;DHT22;57445;51.058;3.698;2022-09-09T08:14:36;19.80;90.50
70074;DHT22;57445;51.058;3.698;2022-09-09T08:17:08;19.90;90.50
70074;DHT22;57445;51.058;3.698;2022-09-09T08:19:40;19.80;90.70
70074;DHT22;57445;51.058;3.698;2022-09-09T08:22:08;19.40;91.30
70074;DHT22;57445;51.058;3.698;2022-09-09T08:24:36;19.50;90.70
70074;DHT22;57445;51.058;3.698;2022-09-09T08:27:03;19.00;91.50
70074;DHT22;57445;51.058;3.698;2022-09-09T08:29:31;19.00;91.60
70074;DHT22;57445;51.058;3.698;2022-09-09T08:32:05;18.80;92.20
70074;DHT22;57445;51.058;3.698;2022-09-09T08:34:37;18.70;92.10
70074;DHT22;57445;51.058;3.698;2022-09-09T08:37:09;18.60;92.50
70074;DHT22;57445;51.058;3.698;2022-09-09T08:39:36;18.50;92.70
70074;DHT22;57445;51.058;3.698;2022-09-09T08:42:26;18.50;93.00
70074;DHT22;57445;51.058;3.698;2022-09-09T08:45:14;18.70;92.20
70074;DHT22;57445;51.058;3.698;2022-09-09T08:48:01;18.80;92.20
70074;DHT22;57445;51.058;3.698;2022-09-09T08:50:36;18.80;92.20
70074;DHT22;57445;51.058;3.698;2022-09-09T08:53:14;18.80;92.00
70074;DHT22;57445;51.058;3.698;2022-09-09T08:55:49;19.10;92.00
70074;DHT22;57445;51.058;3.698;2022-09-09T08:58:25;19.10;91.60
70074;DHT22;57445;51.058;3.698;2022-09-09T09:01:14;18.80;92.10
70074;DHT22;57445;51.058;3.698;2022-09-09T09:03:52;18.30;92.60
70074;DHT22;57445;51.058;3.698;2022-09-09T09:06:31;18.50;92.70
70074;DHT22;57445;51.058;3.698;2022-09-09T09:09:08;18.60;92.80
70074;DHT22;57445;51.058;3.698;2022-09-09T09:11:41;18.50;93.30
70074;DHT22;57445;51.058;3.698;2022-09-09T09:14:19;18.80;92.30
70074;DHT22;57445;51.058;3.698;2022-09-09T09:16:53;18.70;92.80
70074;DHT22;57445;51.058;3.698;2022-09-09T09:19:28;19.00;92.30
70074;DHT22;57445;51.058;3.698;2022-09-09T09:22:06;19.10;91.90
70074;DHT22;57445;51.058;3.698;2022-09-09T09:24:51;19.30;92.40
70074;DHT22;57445;51.058;3.698;2022-09-09T09:27:32;19.70;91.20
70074;DHT22;57445;51.058;3.698;2022-09-09T09:30:14;19.70;91.20
70074;DHT22;57445;51.058;3.698;2022-09-09T09:32:47;20.10;90.70
70074;DHT22;57445;51.058;3.698;2022-09-09T09:35:16;20.30;90.10
70074;DHT22;57445;51.058;3.698;2022-09-09T09:37:45;20.70;88.30
70074;DHT22;57445;51.058;3.698;2022-09-09T09:40:16;20.60;88.20
70074;DHT22;57445;51.058;3.698;2022-09-09T09:42:52;20.60;88.50
70074;DHT22;57445;51.058;3.698;2022-09-09T09:45:28;20.40;89.50
70074;DHT22;57445;51.058;3.698;2022-09-09T09:47:59;20.40;90.00
70074;DHT22;57445;51.058;3.698;2022-09-09T09:50:30;20.50;89.00
70074;DHT22;57445;51.058;3.698;2022-09-09T09:53:04;20.50;89.00
70074;DHT22;57445;51.058;3.698;2022-09-09T09:55:48;20.10;90.20
70074;DHT22;57445;51.058;3.698;2022-09-09T09:58:17;20.30;90.20
70074;DHT22;57445;51.058;3.698;2022-09-09T10:00:50;20.40;90.10
70074;DHT22;57445;51.058;3.698;2022-09-09T10:03:25;20.50;89.40
70074;DHT22;57445;51.058;3.698;2022-09-09T10:05:59;20.40;89.70
70074;DHT22;57445;51.058;3.698;2022-09-09T10:08:28;20.30;90.00
70074;DHT22;57445;51.058;3.698;2022-09-09T10:11:17;20.40;90.00
70074;DHT22;57445;51.058;3.698;2022-09-09T10:13:56;20.40;89.60
70074;DHT22;57445;51.058;3.698;2022-09-09T10:16:42;20.40;90.20
70074;DHT22;57445;51.058;3.698;2022-09-09T10:19:14;20.30;90.00
70074;DHT22;57445;51.058;3.698;2022-09-09T10:22:01;20.50;89.20
70074;DHT22;57445;51.058;3.698;2022-09-09T10:25:00;20.40;89.70
70074;DHT22;57445;51.058;3.698;2022-09-09T10:27:36;21.00;88.40
70074;DHT22;57445;51.058;3.698;2022-09-09T10:30:14;21.10;87.00
70074;DHT22;57445;51.058;3.698;2022-09-09T10:32:49;21.20;86.40
70074;DHT22;57445;51.058;3.698;2022-09-09T10:35:34;21.20;86.00
70074;DHT22;57445;51.058;3.698;2022-09-09T10:38:16;21.10;86.90
70074;DHT22;57445;51.058;3.698;2022-09-09T10:41:11;21.30;86.00
70074;DHT22;57445;51.058;3.698;2022-09-09T10:44:12;21.50;85.20
70074;DHT22;57445;51.058;3.698;2022-09-09T10:46:56;21.30;85.20
70074;DHT22;57445;51.058;3.698;2022-09-09T10:49:53;21.40;85.50
70074;DHT22;57445;51.058;3.698;2022-09-09T10:52:30;21.80;84.20
70074;DHT22;57445;51.058;3.698;2022-09-09T10:55:12;21.80;83.50
70074;DHT22;57445;51.058;3.698;2022-09-09T10:57:43;21.30;85.40
70074;DHT22;57445;51.058;3.698;2022-09-09T11:00:18;21.40;85.80
70074;DHT22;57445;51.058;3.698;2022-09-09T11:02:50;21.30;86.40
70074;DHT22;57445;51.058;3.698;2022-09-09T11:05:28;21.20;86.40
70074;DHT22;57445;51.058;3.698;2022-09-09T11:07:59;21.50;86.40
70074;DHT22;57445;51.058;3.698;2022-09-09T11:10:39;21.70;84.30
70074;DHT22;57445;51.058;3.698;2022-09-09T11:13:13;22.00;82.90
70074;DHT22;57445;51.058;3.698;2022-09-09T11:15:46;22.40;82.50
70074;DHT22;57445;51.058;3.698;2022-09-09T11:18:22;22.10;82.70
70074;DHT22;57445;51.058;3.698;2022-09-09T11:20:53;22.20;83.30
70074;DHT22;57445;51.058;3.698;2022-09-09T11:23:35;22.50;82.90
70074;DHT22;57445;51.058;3.698;2022-09-09T11:26:14;23.40;80.40
70074;DHT22;57445;51.058;3.698;2022-09-09T11:28:59;23.60;78.90
70074;DHT22;57445;51.058;3.698;2022-09-09T11:31:45;23.40;79.30
70074;DHT22;57445;51.058;3.698;2022-09-09T11:34:27;23.50;78.40
70074;DHT22;57445;51.058;3.698;2022-09-09T11:37:23;22.90;80.30
70074;DHT22;57445;51.058;3.698;2022-09-09T11:43:09;22.50;81.50
70074;DHT22;57445;51.058;3.698;2022-09-09T11:45:39;22.40;81.60
70074;DHT22;57445;51.058;3.698;2022-09-09T11:48:23;22.70;80.00
70074;DHT22;57445;51.058;3.698;2022-09-09T11:50:58;22.40;80.40
70074;DHT22;57445;51.058;3.698;2022-09-09T11:53:26;22.20;81.50
70074;DHT22;57445;51.058;3.698;2022-09-09T11:56:06;21.80;82.30
70074;DHT22;57445;51.058;3.698;2022-09-09T11:58:42;21.70;83.10
70074;DHT22;57445;51.058;3.698;2022-09-09T12:01:25;21.50;84.20
70074;DHT22;57445;51.058;3.698;2022-09-09T12:04:09;21.30;84.40
70074;DHT22;57445;51.058;3.698;2022-09-09T12:06:44;21.30;85.40
70074;DHT22;57445;51.058;3.698;2022-09-09T12:09:28;21.70;83.90
70074;DHT22;57445;51.058;3.698;2022-09-09T12:12:07;21.60;83.60
70074;DHT22;57445;51.058;3.698;2022-09-09T12:14:38;21.30;85.60
70074;DHT22;57445;51.058;3.698;2022-09-09T12:17:19;21.50;85.70
70074;DHT22;57445;51.058;3.698;2022-09-09T12:19:48;21.70;84.20
70074;DHT22;57445;51.058;3.698;2022-09-09T12:22:35;21.80;84.00
70074;DHT22;57445;51.058;3.698;2022-09-09T12:25:13;22.40;82.10
70074;DHT22;57445;51.058;3.698;2022-09-09T12:27:48;22.60;80.60
70074;DHT22;57445;51.058;3.698;2022-09-09T12:30:29;22.80;80.60
70074;DHT22;57445;51.058;3.698;2022-09-09T12:33:02;22.30;83.00
70074;DHT22;57445;51.058;3.698;2022-09-09T12:35:35;22.00;83.90
70074;DHT22;57445;51.058;3.698;2022-09-09T12:38:05;21.50;84.90
70074;DHT22;57445;51.058;3.698;2022-09-09T12:40:41;21.30;85.90
70074;DHT22;57445;51.058;3.698;2022-09-09T12:43:20;21.80;84.40
70074;DHT22;57445;51.058;3.698;2022-09-09T12:45:56;22.00;84.00
70074;DHT22;57445;51.058;3.698;2022-09-09T12:48:32;22.10;83.10
70074;DHT22;57445;51.058;3.698;2022-09-09T12:51:17;22.40;82.50
70074;DHT22;57445;51.058;3.698;2022-09-09T12:53:50;22.20;82.20
70074;DHT22;57445;51.058;3.698;2022-09-09T12:56:20;22.20;83.10
70074;DHT22;57445;51.058;3.698;2022-09-09T12:58:54;21.90;83.90
70074;DHT22;57445;51.058;3.698;2022-09-09T13:01:25;21.90;84.30
70074;DHT22;57445;51.058;3.698;2022-09-09T13:03:53;21.70;84.50
70074;DHT22;57445;51.058;3.698;2022-09-09T13:06:27;21.40;86.90
70074;DHT22;57445;51.058;3.698;2022-09-09T13:09:00;21.40;87.10
70074;DHT22;57445;51.058;3.698;2022-09-09T13:11:31;21.80;86.80
70074;DHT22;57445;51.058;3.698;2022-09-09T13:14:02;21.70;85.90
70074;DHT22;57445;51.058;3.698;2022-09-09T13:16:33;21.60;88.50
70074;DHT22;57445;51.058;3.698;2022-09-09T13:19:08;21.70;88.40
70074;DHT22;57445;51.058;3.698;2022-09-09T13:21:38;22.30;89.50
70074;DHT22;57445;51.058;3.698;2022-09-09T13:24:21;23.00;83.90
70074;DHT22;57445;51.058;3.698;2022-09-09T13:26:55;23.00;83.40
70074;DHT22;57445;51.058;3.698;2022-09-09T13:29:23;22.80;83.60
70074;DHT22;57445;51.058;3.698;2022-09-09T13:32:05;22.80;82.10
70074;DHT22;57445;51.058;3.698;2022-09-09T13:34:38;22.50;82.50
70074;DHT22;57445;51.058;3.698;2022-09-09T13:37:23;22.40;83.00
70074;DHT22;57445;51.058;3.698;2022-09-09T13:39:52;22.40;82.60
70074;DHT22;57445;51.058;3.698;2022-09-09T13:42:26;22.60;82.60
70074;DHT22;57445;51.058;3.698;2022-09-09T13:44:59;22.70;81.80
70074;DHT22;57445;51.058;3.698;2022-09-09T13:47:31;23.00;80.30
70074;DHT22;57445;51.058;3.698;2022-09-09T13:50:15;23.10;78.40
70074;DHT22;57445;51.058;3.698;2022-09-09T13:52:54;22.70;79.90
70074;DHT22;57445;51.058;3.698;2022-09-09T13:55:26;22.50;81.40
70074;DHT22;57445;51.058;3.698;2022-09-09T13:58:00;22.40;81.00
70074;DHT22;57445;51.058;3.698;2022-09-09T14:00:30;22.20;82.10
70074;DHT22;57445;51.058;3.698;2022-09-09T14:02:59;22.10;82.50
70074;DHT22;57445;51.058;3.698;2022-09-09T14:05:32;22.30;81.70
70074;DHT22;57445;51.058;3.698;2022-09-09T14:08:03;22.20;81.20
70074;DHT22;57445;51.058;3.698;2022-09-09T14:10:32;22.70;79.80
70074;DHT22;57445;51.058;3.698;2022-09-09T14:13:06;22.80;79.30
70074;DHT22;57445;51.058;3.698;2022-09-09T14:15:39;22.80;79.10
70074;DHT22;57445;51.058;3.698;2022-09-09T14:18:11;22.90;78.40
70074;DHT22;57445;51.058;3.698;2022-09-09T14:20:44;22.70;79.30
70074;DHT22;57445;51.058;3.698;2022-09-09T14:23:12;22.30;81.20
70074;DHT22;57445;51.058;3.698;2022-09-09T14:25:42;22.30;82.20
70074;DHT22;57445;51.058;3.698;2022-09-09T14:28:14;22.20;81.50
70074;DHT22;57445;51.058;3.698;2022-09-09T14:30:47;22.30;81.60
70074;DHT22;57445;51.058;3.698;2022-09-09T14:33:16;22.50;82.40
70074;DHT22;57445;51.058;3.698;2022-09-09T14:35:43;22.30;82.80
70074;DHT22;57445;51.058;3.698;2022-09-09T14:38:12;22.40;82.80
70074;DHT22;57445;51.058;3.698;2022-09-09T14:40:40;22.60;82.50
70074;DHT22;57445;51.058;3.698;2022-09-09T14:43:12;23.20;80.50
70074;DHT22;57445;51.058;3.698;2022-09-09T14:45:45;23.00;80.10
70074;DHT22;57445;51.058;3.698;2022-09-09T14:48:15;22.70;79.90
70074;DHT22;57445;51.058;3.698;2022-09-09T14:50:43;21.90;82.60
70074;DHT22;57445;51.058;3.698;2022-09-09T14:53:16;21.20;85.80
70074;DHT22;57445;51.058;3.698;2022-09-09T14:55:44;20.80;86.70
70074;DHT22;57445;51.058;3.698;2022-09-09T14:58:13;20.80;87.60
70074;DHT22;57445;51.058;3.698;2022-09-09T15:00:45;21.00;86.20
70074;DHT22;57445;51.058;3.698;2022-09-09T15:03:18;20.90;86.90
70074;DHT22;57445;51.058;3.698;2022-09-09T15:05:50;21.10;85.80
70074;DHT22;57445;51.058;3.698;2022-09-09T15:08:18;21.20;86.10
70074;DHT22;57445;51.058;3.698;2022-09-09T15:10:46;21.10;87.10
70074;DHT22;57445;51.058;3.698;2022-09-09T15:13:15;21.30;86.40
70074;DHT22;57445;51.058;3.698;2022-09-09T15:15:47;21.50;85.30
70074;DHT22;57445;51.058;3.698;2022-09-09T15:18:17;21.70;84.10
70074;DHT22;57445;51.058;3.698;2022-09-09T15:20:45;22.00;83.30
70074;DHT22;57445;51.058;3.698;2022-09-09T15:23:17;21.70;83.80
70074;DHT22;57445;51.058;3.698;2022-09-09T15:25:52;21.40;85.60
70074;DHT22;57445;51.058;3.698;2022-09-09T15:28:20;21.30;85.80
70074;DHT22;57445;51.058;3.698;2022-09-09T15:30:48;21.20;84.30
70074;DHT22;57445;51.058;3.698;2022-09-09T15:33:17;21.20;83.80
70074;DHT22;57445;51.058;3.698;2022-09-09T15:35:45;21.00;86.60
70074;DHT22;57445;51.058;3.698;2022-09-09T15:38:13;21.00;87.20
70074;DHT22;57445;51.058;3.698;2022-09-09T15:40:53;21.00;86.70
70074;DHT22;57445;51.058;3.698;2022-09-09T15:43:26;21.10;82.60
70074;DHT22;57445;51.058;3.698;2022-09-09T15:46:05;21.00;83.00
70074;DHT22;57445;51.058;3.698;2022-09-09T15:48:47;21.00;83.10
70074;DHT22;57445;51.058;3.698;2022-09-09T15:51:15;20.90;83.50
70074;DHT22;57445;51.058;3.698;2022-09-09T15:53:47;21.00;83.50
70074;DHT22;57445;51.058;3.698;2022-09-09T15:56:19;21.10;83.20
70074;DHT22;57445;51.058;3.698;2022-09-09T15:58:47;21.20;82.80
70074;DHT22;57445;51.058;3.698;2022-09-09T16:01:15;21.30;82.40
70074;DHT22;57445;51.058;3.698;2022-09-09T16:03:43;21.20;82.40
70074;DHT22;57445;51.058;3.698;2022-09-09T16:06:14;21.20;82.00
70074;DHT22;57445;51.058;3.698;2022-09-09T16:08:47;21.00;82.20
70074;DHT22;57445;51.058;3.698;2022-09-09T16:11:18;20.90;83.10
70074;DHT22;57445;51.058;3.698;2022-09-09T16:13:48;21.00;83.10
70074;DHT22;57445;51.058;3.698;2022-09-09T16:16:17;21.10;82.10